sensor_id;sensor_type;location;lat;lon;timestamp;temperature;humidity
51982;DHT22;37998;53.416;6.730;2023-10-09T00:00:11;14.00;99.90
51982;DHT22;37998;53.416;6.730;2023-10-09T00:02:56;14.00;99.90
51982;DHT22;37998;53.416;6.730;2023-10-09T00:05:27;14.00;99.90
51982;DHT22;37998;53.416;6.730;2023-10-09T00:08:12;14.00;99.90
51982;DHT22;37998;53.416;6.730;2023-10-09T00:10:43;14.00;99.90
51982;DHT22;37998;53.416;6.730;2023-10-09T00:13:19;14.10;99.90
51982;DHT22;37998;53.416;6.730;2023-10-09T00:15:45;14.00;99.90
51982;DHT22;37998;53.416;6.730;2023-10-09T00:18:18;14.00;99.90
51982;DHT22;37998;53.416;6.730;2023-10-09T00:20:54;14.10;99.90
51982;DHT22;37998;53.416;6.730;2023-10-09T00:23:21;14.00;99.90
51982;DHT22;37998;53.416;6.730;2023-10-09T00:25:52;14.00;99.90
51982;DHT22;37998;53.416;6.730;2023-10-09T00:28:50;14.00;99.90
51982;DHT22;37998;53.416;6.730;2023-10-09T00:31:20;14.10;99.90
51982;DHT22;37998;53.416;6.730;2023-10-09T00:33:59;14.00;99.90
51982;DHT22;37998;53.416;6.730;2023-10-09T00:36:46;14.00;99.90
51982;DHT22;37998;53.416;6.730;2023-10-09T00:39:21;14.00;99.90
51982;DHT22;37998;53.416;6.730;2023-10-09T00:42:07;14.00;99.90
51982;DHT22;37998;53.416;6.730;2023-10-09T00:44:34;14.00;99.90
51982;DHT22;37998;53.416;6.730;2023-10-09T00:47:12;14.00;99.90
51982;DHT22;37998;53.416;6.730;2023-10-09T00:50:03;14.00;99.90
51982;DHT22;37998;53.416;6.730;2023-10-09T00:52:55;14.00;99.90
51982;DHT22;37998;53.416;6.730;2023-10-09T00:55:32;14.00;99.90
51982;DHT22;37998;53.416;6.730;2023-10-09T00:58:12;14.00;99.90
51982;DHT22;37998;53.416;6.730;2023-10-09T01:00:40;13.90;99.90
51982;DHT22;37998;53.416;6.730;2023-10-09T01:03:13;14.00;99.90
51982;DHT22;37998;53.416;6.730;2023-10-09T01:05:48;14.00;99.90
51982;DHT22;37998;53.416;6.730;2023-10-09T01:08:32;13.90;99.90
51982;DHT22;37998;53.416;6.730;2023-10-09T01:11:13;13.90;99.90
51982;DHT22;37998;53.416;6.730;2023-10-09T01:13:56;14.00;99.90
51982;DHT22;37998;53.416;6.730;2023-10-09T01:16:37;13.90;99.90
51982;DHT22;37998;53.416;6.730;2023-10-09T01:19:03;13.90;99.90
51982;DHT22;37998;53.416;6.730;2023-10-09T01:21:39;13.80;99.90
51982;DHT22;37998;53.416;6.730;2023-10-09T01:24:08;14.00;99.90
51982;DHT22;37998;53.416;6.730;2023-10-09T01:26:38;14.00;99.90
51982;DHT22;37998;53.416;6.730;2023-10-09T01:29:13;14.00;99.90
51982;DHT22;37998;53.416;6.730;2023-10-09T01:31:47;14.00;99.90
51982;DHT22;37998;53.416;6.730;2023-10-09T01:34:30;14.00;99.90
51982;DHT22;37998;53.416;6.730;2023-10-09T01:37:14;14.00;99.90
51982;DHT22;37998;53.416;6.730;2023-10-09T01:39:55;14.00;99.90
51982;DHT22;37998;53.416;6.730;2023-10-09T01:42:25;14.00;99.90
51982;DHT22;37998;53.416;6.730;2023-10-09T01:45:11;13.90;99.90
51982;DHT22;37998;53.416;6.730;2023-10-09T01:47:38;14.00;99.90
51982;DHT22;37998;53.416;6.730;2023-10-09T01:50:05;14.00;99.90
51982;DHT22;37998;53.416;6.730;2023-10-09T01:52:43;14.00;99.90
51982;DHT22;37998;53.416;6.730;2023-10-09T01:55:09;14.00;99.90
51982;DHT22;37998;53.416;6.730;2023-10-09T01:57:39;14.00;99.90
51982;DHT22;37998;53.416;6.730;2023-10-09T02:00:06;14.00;99.90
51982;DHT22;37998;53.416;6.730;2023-10-09T02:02:38;14.00;99.90
51982;DHT22;37998;53.416;6.730;2023-10-09T02:05:09;14.00;99.90
51982;DHT22;37998;53.416;6.730;2023-10-09T02:07:37;14.00;99.90
51982;DHT22;37998;53.416;6.730;2023-10-09T02:10:27;14.00;99.90
51982;DHT22;37998;53.416;6.730;2023-10-09T02:13:02;14.00;99.90
51982;DHT22;37998;53.416;6.730;2023-10-09T02:15:40;14.10;99.90
51982;DHT22;37998;53.416;6.730;2023-10-09T02:18:26;14.00;99.90
51982;DHT22;37998;53.416;6.730;2023-10-09T02:23:28;14.00;99.90
51982;DHT22;37998;53.416;6.730;2023-10-09T02:26:19;14.00;99.90
51982;DHT22;37998;53.416;6.730;2023-10-09T02:28:54;14.00;99.90
51982;DHT22;37998;53.416;6.730;2023-10-09T02:31:34;14.00;99.90
51982;DHT22;37998;53.416;6.730;2023-10-09T02:34:07;14.00;99.90
51982;DHT22;37998;53.416;6.730;2023-10-09T02:36:41;14.00;99.90
51982;DHT22;37998;53.416;6.730;2023-10-09T02:39:08;13.90;99.90
51982;DHT22;37998;53.416;6.730;2023-10-09T02:41:55;14.00;99.90
51982;DHT22;37998;53.416;6.730;2023-10-09T02:44:28;14.00;99.90
51982;DHT22;37998;53.416;6.730;2023-10-09T02:46:58;13.90;99.90
51982;DHT22;37998;53.416;6.730;2023-10-09T02:49:24;14.00;99.90
51982;DHT22;37998;53.416;6.730;2023-10-09T02:51:53;13.90;99.90
51982;DHT22;37998;53.416;6.730;2023-10-09T02:54:19;14.00;99.90
51982;DHT22;37998;53.416;6.730;2023-10-09T02:56:47;14.00;99.90
51982;DHT22;37998;53.416;6.730;2023-10-09T02:59:33;14.00;99.90
51982;DHT22;37998;53.416;6.730;2023-10-09T03:02:00;14.00;99.90
51982;DHT22;37998;53.416;6.730;2023-10-09T03:04:26;14.00;99.90
51982;DHT22;37998;53.416;6.730;2023-10-09T03:07:00;13.90;99.90
51982;DHT22;37998;53.416;6.730;2023-10-09T03:09:26;14.00;99.90
51982;DHT22;37998;53.416;6.730;2023-10-09T03:11:55;14.00;99.90
51982;DHT22;37998;53.416;6.730;2023-10-09T03:14:32;14.00;99.90
51982;DHT22;37998;53.416;6.730;2023-10-09T03:16:58;14.00;99.90
51982;DHT22;37998;53.416;6.730;2023-10-09T03:19:29;13.90;99.90
51982;DHT22;37998;53.416;6.730;2023-10-09T03:21:55;14.00;99.90
51982;DHT22;37998;53.416;6.730;2023-10-09T03:24:24;14.00;99.90
51982;DHT22;37998;53.416;6.730;2023-10-09T03:26:50;14.00;99.90
51982;DHT22;37998;53.416;6.730;2023-10-09T03:29:22;14.00;99.90
51982;DHT22;37998;53.416;6.730;2023-10-09T03:31:48;14.10;99.90
51982;DHT22;37998;53.416;6.730;2023-10-09T03:34:16;14.00;99.90
51982;DHT22;37998;53.416;6.730;2023-10-09T03:36:42;14.20;99.90
51982;DHT22;37998;53.416;6.730;2023-10-09T03:39:09;14.20;99.90
51982;DHT22;37998;53.416;6.730;2023-10-09T03:42:04;14.20;99.90
51982;DHT22;37998;53.416;6.730;2023-10-09T03:44:34;14.30;99.90
51982;DHT22;37998;53.416;6.730;2023-10-09T03:47:06;14.30;99.90
51982;DHT22;37998;53.416;6.730;2023-10-09T03:49:35;14.40;99.90
51982;DHT22;37998;53.416;6.730;2023-10-09T03:52:05;14.40;99.90
51982;DHT22;37998;53.416;6.730;2023-10-09T03:54:33;14.40;99.90
51982;DHT22;37998;53.416;6.730;2023-10-09T03:57:01;14.40;99.90
51982;DHT22;37998;53.416;6.730;2023-10-09T03:59:28;14.40;99.90
51982;DHT22;37998;53.416;6.730;2023-10-09T04:01:58;14.50;99.90
51982;DHT22;37998;53.416;6.730;2023-10-09T04:04:30;14.50;99.90
51982;DHT22;37998;53.416;6.730;2023-10-09T04:06:58;14.50;99.90
51982;DHT22;37998;53.416;6.730;2023-10-09T04:09:24;14.60;99.90
51982;DHT22;37998;53.416;6.730;2023-10-09T04:11:51;14.70;99.90
51982;DHT22;37998;53.416;6.730;2023-10-09T04:14:41;14.70;99.90
51982;DHT22;37998;53.416;6.730;2023-10-09T04:17:20;14.80;99.90
51982;DHT22;37998;53.416;6.730;2023-10-09T04:19:55;14.80;99.90
51982;DHT22;37998;53.416;6.730;2023-10-09T04:22:40;14.90;99.90
51982;DHT22;37998;53.416;6.730;2023-10-09T04:25:25;14.90;99.90
51982;DHT22;37998;53.416;6.730;2023-10-09T04:27:55;14.90;99.90
51982;DHT22;37998;53.416;6.730;2023-10-09T04:30:48;15.00;99.90
51982;DHT22;37998;53.416;6.730;2023-10-09T04:33:22;15.00;99.90
51982;DHT22;37998;53.416;6.730;2023-10-09T04:36:10;15.00;99.90
51982;DHT22;37998;53.416;6.730;2023-10-09T04:38:53;15.10;99.90
51982;DHT22;37998;53.416;6.730;2023-10-09T04:41:32;15.10;99.90
51982;DHT22;37998;53.416;6.730;2023-10-09T04:44:18;15.10;99.90
51982;DHT22;37998;53.416;6.730;2023-10-09T04:46:49;15.10;99.90
51982;DHT22;37998;53.416;6.730;2023-10-09T04:49:34;15.10;99.90
51982;DHT22;37998;53.416;6.730;2023-10-09T04:52:16;15.20;99.90
51982;DHT22;37998;53.416;6.730;2023-10-09T04:54:51;15.20;99.90
51982;DHT22;37998;53.416;6.730;2023-10-09T04:57:43;15.20;99.90
51982;DHT22;37998;53.416;6.730;2023-10-09T05:00:11;15.20;99.90
51982;DHT22;37998;53.416;6.730;2023-10-09T05:02:57;15.30;99.90
51982;DHT22;37998;53.416;6.730;2023-10-09T05:05:29;15.20;99.90
51982;DHT22;37998;53.416;6.730;2023-10-09T05:08:14;15.20;99.90
51982;DHT22;37998;53.416;6.730;2023-10-09T05:10:56;15.30;99.90
51982;DHT22;37998;53.416;6.730;2023-10-09T05:13:30;15.30;99.90
51982;DHT22;37998;53.416;6.730;2023-10-09T05:16:12;15.30;99.90
51982;DHT22;37998;53.416;6.730;2023-10-09T05:18:58;15.30;99.90
51982;DHT22;37998;53.416;6.730;2023-10-09T05:21:28;15.30;99.90
51982;DHT22;37998;53.416;6.730;2023-10-09T05:24:02;15.40;99.90
51982;DHT22;37998;53.416;6.730;2023-10-09T05:26:41;15.40;99.90
51982;DHT22;37998;53.416;6.730;2023-10-09T05:29:10;15.40;99.90
51982;DHT22;37998;53.416;6.730;2023-10-09T05:31:46;15.40;99.90
51982;DHT22;37998;53.416;6.730;2023-10-09T05:34:33;15.50;99.90
51982;DHT22;37998;53.416;6.730;2023-10-09T05:37:06;15.50;99.90
51982;DHT22;37998;53.416;6.730;2023-10-09T05:39:54;15.50;99.90
51982;DHT22;37998;53.416;6.730;2023-10-09T05:42:30;15.50;99.90
51982;DHT22;37998;53.416;6.730;2023-10-09T05:45:06;15.60;99.90
51982;DHT22;37998;53.416;6.730;2023-10-09T05:47:52;15.60;99.90
51982;DHT22;37998;53.416;6.730;2023-10-09T05:50:29;15.60;99.90
51982;DHT22;37998;53.416;6.730;2023-10-09T05:52:56;15.70;99.90
51982;DHT22;37998;53.416;6.730;2023-10-09T05:55:23;15.70;99.90
51982;DHT22;37998;53.416;6.730;2023-10-09T05:57:56;15.70;99.90
51982;DHT22;37998;53.416;6.730;2023-10-09T06:00:40;15.70;99.90
51982;DHT22;37998;53.416;6.730;2023-10-09T06:03:25;15.80;99.90
51982;DHT22;37998;53.416;6.730;2023-10-09T06:05:53;15.80;99.90
51982;DHT22;37998;53.416;6.730;2023-10-09T06:08:26;15.80;99.90
51982;DHT22;37998;53.416;6.730;2023-10-09T06:10:53;15.80;99.90
51982;DHT22;37998;53.416;6.730;2023-10-09T06:13:33;15.80;99.90
51982;DHT22;37998;53.416;6.730;2023-10-09T06:16:12;15.80;99.90
51982;DHT22;37998;53.416;6.730;2023-10-09T06:18:57;15.80;99.90
51982;DHT22;37998;53.416;6.730;2023-10-09T06:21:41;15.80;99.90
51982;DHT22;37998;53.416;6.730;2023-10-09T06:24:08;15.80;99.90
51982;DHT22;37998;53.416;6.730;2023-10-09T06:26:44;15.80;99.90
51982;DHT22;37998;53.416;6.730;2023-10-09T06:29:29;15.80;99.90
51982;DHT22;37998;53.416;6.730;2023-10-09T06:32:08;15.80;99.90
51982;DHT22;37998;53.416;6.730;2023-10-09T06:34:59;15.80;99.90
51982;DHT22;37998;53.416;6.730;2023-10-09T06:37:49;15.80;99.90
51982;DHT22;37998;53.416;6.730;2023-10-09T06:40:33;15.80;99.90
51982;DHT22;37998;53.416;6.730;2023-10-09T06:43:08;15.80;99.90
51982;DHT22;37998;53.416;6.730;2023-10-09T06:45:43;15.80;99.90
51982;DHT22;37998;53.416;6.730;2023-10-09T06:48:10;15.00;99.90
51982;DHT22;37998;53.416;6.730;2023-10-09T06:50:55;15.80;99.90
51982;DHT22;37998;53.416;6.730;2023-10-09T06:53:22;15.80;99.90
51982;DHT22;37998;53.416;6.730;2023-10-09T06:55:54;15.80;99.90
51982;DHT22;37998;53.416;6.730;2023-10-09T06:58:32;15.80;99.90
51982;DHT22;37998;53.416;6.730;2023-10-09T07:01:13;15.80;99.90
51982;DHT22;37998;53.416;6.730;2023-10-09T07:03:57;15.80;99.90
51982;DHT22;37998;53.416;6.730;2023-10-09T07:06:36;15.80;99.90
51982;DHT22;37998;53.416;6.730;2023-10-09T07:09:02;15.80;99.90
51982;DHT22;37998;53.416;6.730;2023-10-09T07:11:36;15.80;99.90
51982;DHT22;37998;53.416;6.730;2023-10-09T07:14:09;15.80;99.90
51982;DHT22;37998;53.416;6.730;2023-10-09T07:16:55;15.80;99.90
51982;DHT22;37998;53.416;6.730;2023-10-09T07:19:29;15.90;99.90
51982;DHT22;37998;53.416;6.730;2023-10-09T07:22:04;15.80;99.90
51982;DHT22;37998;53.416;6.730;2023-10-09T07:24:30;15.80;99.90
51982;DHT22;37998;53.416;6.730;2023-10-09T07:27:20;15.80;99.90
51982;DHT22;37998;53.416;6.730;2023-10-09T07:30:07;15.80;99.90
51982;DHT22;37998;53.416;6.730;2023-10-09T07:33:07;15.80;99.90
51982;DHT22;37998;53.416;6.730;2023-10-09T07:35:38;15.80;99.90
51982;DHT22;37998;53.416;6.730;2023-10-09T07:38:22;15.80;99.90
51982;DHT22;37998;53.416;6.730;2023-10-09T07:40:51;15.90;99.90
51982;DHT22;37998;53.416;6.730;2023-10-09T07:43:40;15.90;99.90
51982;DHT22;37998;53.416;6.730;2023-10-09T07:46:14;15.90;99.90
51982;DHT22;37998;53.416;6.730;2023-10-09T07:48:56;15.90;99.90
51982;DHT22;37998;53.416;6.730;2023-10-09T07:51:24;15.90;99.90
51982;DHT22;37998;53.416;6.730;2023-10-09T07:53:57;15.90;99.90
51982;DHT22;37998;53.416;6.730;2023-10-09T07:56:24;16.00;99.90
51982;DHT22;37998;53.416;6.730;2023-10-09T07:58:50;15.90;99.90
51982;DHT22;37998;53.416;6.730;2023-10-09T08:01:17;15.90;99.90
51982;DHT22;37998;53.416;6.730;2023-10-09T08:04:00;15.90;99.90
51982;DHT22;37998;53.416;6.730;2023-10-09T08:06:41;16.00;99.90
51982;DHT22;37998;53.416;6.730;2023-10-09T08:09:11;16.00;99.90
51982;DHT22;37998;53.416;6.730;2023-10-09T08:11:47;15.90;99.90
51982;DHT22;37998;53.416;6.730;2023-10-09T08:14:43;16.00;99.90
51982;DHT22;37998;53.416;6.730;2023-10-09T08:17:09;16.00;99.90
51982;DHT22;37998;53.416;6.730;2023-10-09T08:19:51;16.00;99.90
51982;DHT22;37998;53.416;6.730;2023-10-09T08:22:30;16.00;99.90
51982;DHT22;37998;53.416;6.730;2023-10-09T08:24:56;16.10;99.90
51982;DHT22;37998;53.416;6.730;2023-10-09T08:27:27;16.10;99.90
51982;DHT22;37998;53.416;6.730;2023-10-09T08:30:05;16.20;99.90
51982;DHT22;37998;53.416;6.730;2023-10-09T08:32:50;16.20;99.90
51982;DHT22;37998;53.416;6.730;2023-10-09T08:35:38;16.20;99.90
51982;DHT22;37998;53.416;6.730;2023-10-09T08:38:13;16.20;99.90
51982;DHT22;37998;53.416;6.730;2023-10-09T08:40:43;16.20;99.90
51982;DHT22;37998;53.416;6.730;2023-10-09T08:43:16;16.20;99.90
51982;DHT22;37998;53.416;6.730;2023-10-09T08:45:45;16.20;99.90
51982;DHT22;37998;53.416;6.730;2023-10-09T08:48:12;16.20;99.90
51982;DHT22;37998;53.416;6.730;2023-10-09T08:50:42;16.20;99.90
51982;DHT22;37998;53.416;6.730;2023-10-09T08:53:13;16.20;99.90
51982;DHT22;37998;53.416;6.730;2023-10-09T08:55:40;16.30;99.90
51982;DHT22;37998;53.416;6.730;2023-10-09T08:58:07;16.30;99.90
51982;DHT22;37998;53.416;6.730;2023-10-09T09:00:43;16.30;99.90
51982;DHT22;37998;53.416;6.730;2023-10-09T09:03:21;16.30;99.90
51982;DHT22;37998;53.416;6.730;2023-10-09T09:05:57;16.40;99.90
51982;DHT22;37998;53.416;6.730;2023-10-09T09:08:27;16.50;99.90
51982;DHT22;37998;53.416;6.730;2023-10-09T09:11:07;16.50;99.90
51982;DHT22;37998;53.416;6.730;2023-10-09T09:13:41;16.50;99.90
51982;DHT22;37998;53.416;6.730;2023-10-09T09:21:48;16.60;99.90
51982;DHT22;37998;53.416;6.730;2023-10-09T09:24:17;16.60;99.90
51982;DHT22;37998;53.416;6.730;2023-10-09T09:27:03;16.60;99.90
51982;DHT22;37998;53.416;6.730;2023-10-09T09:29:40;16.60;99.90
51982;DHT22;37998;53.416;6.730;2023-10-09T09:32:11;16.70;99.90
51982;DHT22;37998;53.416;6.730;2023-10-09T09:34:47;16.70;99.90
51982;DHT22;37998;53.416;6.730;2023-10-09T09:37:25;16.70;99.90
51982;DHT22;37998;53.416;6.730;2023-10-09T09:40:02;16.70;99.90
51982;DHT22;37998;53.416;6.730;2023-10-09T09:42:43;16.70;99.90
51982;DHT22;37998;53.416;6.730;2023-10-09T09:45:14;16.70;99.90
51982;DHT22;37998;53.416;6.730;2023-10-09T09:47:45;16.60;99.90
51982;DHT22;37998;53.416;6.730;2023-10-09T09:50:17;16.70;99.90
51982;DHT22;37998;53.416;6.730;2023-10-09T09:52:55;16.70;99.90
51982;DHT22;37998;53.416;6.730;2023-10-09T09:55:26;16.70;99.90
51982;DHT22;37998;53.416;6.730;2023-10-09T09:57:57;16.70;99.90
51982;DHT22;37998;53.416;6.730;2023-10-09T10:00:29;16.60;99.90
51982;DHT22;37998;53.416;6.730;2023-10-09T10:03:14;16.70;99.90
51982;DHT22;37998;53.416;6.730;2023-10-09T10:05:45;16.60;99.90
51982;DHT22;37998;53.416;6.730;2023-10-09T10:08:20;16.60;99.90
51982;DHT22;37998;53.416;6.730;2023-10-09T10:10:47;16.60;99.90
51982;DHT22;37998;53.416;6.730;2023-10-09T10:13:16;16.60;99.90
51982;DHT22;37998;53.416;6.730;2023-10-09T10:21:19;16.60;99.90
51982;DHT22;37998;53.416;6.730;2023-10-09T10:24:00;16.60;99.90
51982;DHT22;37998;53.416;6.730;2023-10-09T10:26:32;16.50;99.90
51982;DHT22;37998;53.416;6.730;2023-10-09T10:29:20;16.60;99.90
51982;DHT22;37998;53.416;6.730;2023-10-09T10:31:54;16.60;99.90
51982;DHT22;37998;53.416;6.730;2023-10-09T10:34:24;16.60;99.90
51982;DHT22;37998;53.416;6.730;2023-10-09T10:36:52;16.60;99.90
51982;DHT22;37998;53.416;6.730;2023-10-09T10:39:24;16.60;99.90
51982;DHT22;37998;53.416;6.730;2023-10-09T10:42:08;16.60;99.90
51982;DHT22;37998;53.416;6.730;2023-10-09T10:44:39;16.60;99.90
51982;DHT22;37998;53.416;6.730;2023-10-09T10:47:12;16.60;99.90
51982;DHT22;37998;53.416;6.730;2023-10-09T10:49:58;16.60;99.90
51982;DHT22;37998;53.416;6.730;2023-10-09T10:52:25;16.70;99.90
51982;DHT22;37998;53.416;6.730;2023-10-09T10:55:12;16.70;99.90
51982;DHT22;37998;53.416;6.730;2023-10-09T10:58:15;16.70;99.90
51982;DHT22;37998;53.416;6.730;2023-10-09T11:00:55;16.70;99.90
51982;DHT22;37998;53.416;6.730;2023-10-09T11:03:25;17.50;99.90
51982;DHT22;37998;53.416;6.730;2023-10-09T11:06:28;16.70;99.90
51982;DHT22;37998;53.416;6.730;2023-10-09T11:09:04;16.70;99.90
51982;DHT22;37998;53.416;6.730;2023-10-09T11:11:48;16.70;99.90
51982;DHT22;37998;53.416;6.730;2023-10-09T11:14:15;16.60;99.90
51982;DHT22;37998;53.416;6.730;2023-10-09T11:16:41;16.60;99.90
51982;DHT22;37998;53.416;6.730;2023-10-09T11:19:18;16.70;99.90
51982;DHT22;37998;53.416;6.730;2023-10-09T11:21:54;16.70;99.90
51982;DHT22;37998;53.416;6.730;2023-10-09T11:24:41;16.80;99.90
51982;DHT22;37998;53.416;6.730;2023-10-09T11:27:09;16.70;99.90
51982;DHT22;37998;53.416;6.730;2023-10-09T11:29:51;16.70;99.90
51982;DHT22;37998;53.416;6.730;2023-10-09T11:32:21;16.70;99.90
51982;DHT22;37998;53.416;6.730;2023-10-09T11:35:10;16.60;99.90
51982;DHT22;37998;53.416;6.730;2023-10-09T11:37:36;16.60;99.90
51982;DHT22;37998;53.416;6.730;2023-10-09T11:40:30;16.50;99.90
51982;DHT22;37998;53.416;6.730;2023-10-09T11:43:20;16.70;99.90
51982;DHT22;37998;53.416;6.730;2023-10-09T11:46:12;16.70;99.90
51982;DHT22;37998;53.416;6.730;2023-10-09T11:48:39;16.70;99.90
51982;DHT22;37998;53.416;6.730;2023-10-09T11:51:33;16.80;99.90
51982;DHT22;37998;53.416;6.730;2023-10-09T11:54:03;16.80;99.90
51982;DHT22;37998;53.416;6.730;2023-10-09T11:56:34;16.80;99.90
51982;DHT22;37998;53.416;6.730;2023-10-09T11:59:00;16.80;99.90
51982;DHT22;37998;53.416;6.730;2023-10-09T12:01:30;16.80;99.90
51982;DHT22;37998;53.416;6.730;2023-10-09T12:04:01;16.90;99.90
51982;DHT22;37998;53.416;6.730;2023-10-09T12:06:26;16.90;99.90
51982;DHT22;37998;53.416;6.730;2023-10-09T12:08:57;17.00;99.90
51982;DHT22;37998;53.416;6.730;2023-10-09T12:11:24;17.00;99.90
51982;DHT22;37998;53.416;6.730;2023-10-09T12:13:55;16.90;99.90
51982;DHT22;37998;53.416;6.730;2023-10-09T12:16:24;17.00;99.90
51982;DHT22;37998;53.416;6.730;2023-10-09T12:18:54;17.00;99.90
51982;DHT22;37998;53.416;6.730;2023-10-09T12:21:20;17.00;99.90
51982;DHT22;37998;53.416;6.730;2023-10-09T12:23:46;17.00;99.90
51982;DHT22;37998;53.416;6.730;2023-10-09T12:26:13;17.00;99.90
51982;DHT22;37998;53.416;6.730;2023-10-09T12:28:43;17.00;99.90
51982;DHT22;37998;53.416;6.730;2023-10-09T12:31:15;17.10;99.90
51982;DHT22;37998;53.416;6.730;2023-10-09T12:33:46;16.90;99.90
51982;DHT22;37998;53.416;6.730;2023-10-09T12:36:13;16.90;99.90
51982;DHT22;37998;53.416;6.730;2023-10-09T12:38:49;16.90;99.90
51982;DHT22;37998;53.416;6.730;2023-10-09T12:41:24;16.90;99.90
51982;DHT22;37998;53.416;6.730;2023-10-09T12:43:59;16.80;99.90
51982;DHT22;37998;53.416;6.730;2023-10-09T12:46:25;16.80;99.90
51982;DHT22;37998;53.416;6.730;2023-10-09T12:48:51;16.90;99.90
51982;DHT22;37998;53.416;6.730;2023-10-09T12:51:23;16.90;99.90
51982;DHT22;37998;53.416;6.730;2023-10-09T12:53:55;16.90;99.90
51982;DHT22;37998;53.416;6.730;2023-10-09T12:56:27;16.90;99.90
51982;DHT22;37998;53.416;6.730;2023-10-09T12:59:14;16.90;99.90
51982;DHT22;37998;53.416;6.730;2023-10-09T13:01:41;16.90;99.90
51982;DHT22;37998;53.416;6.730;2023-10-09T13:04:11;16.80;99.90
51982;DHT22;37998;53.416;6.730;2023-10-09T13:06:40;16.80;99.90
51982;DHT22;37998;53.416;6.730;2023-10-09T13:09:14;16.80;99.90
51982;DHT22;37998;53.416;6.730;2023-10-09T13:11:40;16.80;99.90
51982;DHT22;37998;53.416;6.730;2023-10-09T13:14:07;16.80;99.90
51982;DHT22;37998;53.416;6.730;2023-10-09T13:16:48;16.80;99.90
51982;DHT22;37998;53.416;6.730;2023-10-09T13:19:18;16.80;99.90
51982;DHT22;37998;53.416;6.730;2023-10-09T13:21:44;16.80;99.90
51982;DHT22;37998;53.416;6.730;2023-10-09T13:24:11;16.80;99.90
51982;DHT22;37998;53.416;6.730;2023-10-09T13:26:45;16.80;99.90
51982;DHT22;37998;53.416;6.730;2023-10-09T13:29:13;16.70;99.90
51982;DHT22;37998;53.416;6.730;2023-10-09T13:31:39;17.20;99.90
51982;DHT22;37998;53.416;6.730;2023-10-09T13:34:12;16.70;99.90
51982;DHT22;37998;53.416;6.730;2023-10-09T13:36:41;16.70;99.90
51982;DHT22;37998;53.416;6.730;2023-10-09T13:39:15;16.70;99.90
51982;DHT22;37998;53.416;6.730;2023-10-09T13:41:59;16.60;99.90
51982;DHT22;37998;53.416;6.730;2023-10-09T13:44:27;16.60;99.90
51982;DHT22;37998;53.416;6.730;2023-10-09T13:46:57;16.60;99.90
51982;DHT22;37998;53.416;6.730;2023-10-09T13:49:25;16.60;99.90
51982;DHT22;37998;53.416;6.730;2023-10-09T13:52:01;16.60;99.90
51982;DHT22;37998;53.416;6.730;2023-10-09T13:54:29;16.60;99.90
51982;DHT22;37998;53.416;6.730;2023-10-09T13:56:58;16.60;99.90
51982;DHT22;37998;53.416;6.730;2023-10-09T13:59:24;16.60;99.90
51982;DHT22;37998;53.416;6.730;2023-10-09T14:01:54;16.60;99.90
51982;DHT22;37998;53.416;6.730;2023-10-09T14:04:23;16.60;99.90
51982;DHT22;37998;53.416;6.730;2023-10-09T14:06:50;16.70;99.90
51982;DHT22;37998;53.416;6.730;2023-10-09T14:09:28;16.70;99.90
51982;DHT22;37998;53.416;6.730;2023-10-09T14:12:00;16.70;99.90
51982;DHT22;37998;53.416;6.730;2023-10-09T14:14:40;16.60;99.90
51982;DHT22;37998;53.416;6.730;2023-10-09T14:17:19;16.60;99.90
51982;DHT22;37998;53.416;6.730;2023-10-09T14:19:50;16.70;99.90
51982;DHT22;37998;53.416;6.730;2023-10-09T14:22:23;16.60;99.90
51982;DHT22;37998;53.416;6.730;2023-10-09T14:24:55;16.70;99.90
51982;DHT22;37998;53.416;6.730;2023-10-09T14:27:23;16.70;99.90
51982;DHT22;37998;53.416;6.730;2023-10-09T14:29:55;16.70;99.90
51982;DHT22;37998;53.416;6.730;2023-10-09T14:32:23;16.70;99.90
51982;DHT22;37998;53.416;6.730;2023-10-09T14:34:55;16.70;99.90
51982;DHT22;37998;53.416;6.730;2023-10-09T14:37:27;16.80;99.90
51982;DHT22;37998;53.416;6.730;2023-10-09T14:39:53;16.70;99.90
51982;DHT22;37998;53.416;6.730;2023-10-09T14:42:21;16.80;99.90
51982;DHT22;37998;53.416;6.730;2023-10-09T14:44:50;16.80;99.90
51982;DHT22;37998;53.416;6.730;2023-10-09T14:47:16;16.80;99.90
51982;DHT22;37998;53.416;6.730;2023-10-09T14:49:47;16.80;99.90
51982;DHT22;37998;53.416;6.730;2023-10-09T14:52:14;16.90;99.90
51982;DHT22;37998;53.416;6.730;2023-10-09T14:54:43;16.90;99.90
51982;DHT22;37998;53.416;6.730;2023-10-09T14:57:12;16.90;99.90
51982;DHT22;37998;53.416;6.730;2023-10-09T14:59:38;16.90;99.90
51982;DHT22;37998;53.416;6.730;2023-10-09T15:02:06;16.80;99.90
51982;DHT22;37998;53.416;6.730;2023-10-09T15:04:33;16.80;99.90
51982;DHT22;37998;53.416;6.730;2023-10-09T15:07:03;16.80;99.90
51982;DHT22;37998;53.416;6.730;2023-10-09T15:09:36;16.80;99.90
51982;DHT22;37998;53.416;6.730;2023-10-09T15:12:03;16.80;99.90
51982;DHT22;37998;53.416;6.730;2023-10-09T15:14:33;16.80;99.90
51982;DHT22;37998;53.416;6.730;2023-10-09T15:16:59;16.80;99.90
51982;DHT22;37998;53.416;6.730;2023-10-09T15:19:26;16.80;99.90
51982;DHT22;37998;53.416;6.730;2023-10-09T15:21:56;16.80;99.90
51982;DHT22;37998;53.416;6.730;2023-10-09T15:24:24;16.70;99.90
51982;DHT22;37998;53.416;6.730;2023-10-09T15:26:56;16.70;99.90
51982;DHT22;37998;53.416;6.730;2023-10-09T15:29:27;16.70;99.90
51982;DHT22;37998;53.416;6.730;2023-10-09T15:31:57;16.60;99.90
51982;DHT22;37998;53.416;6.730;2023-10-09T15:34:26;16.60;99.90
51982;DHT22;37998;53.416;6.730;2023-10-09T15:36:53;16.60;99.90
51982;DHT22;37998;53.416;6.730;2023-10-09T15:39:19;16.50;99.90
51982;DHT22;37998;53.416;6.730;2023-10-09T15:41:46;16.50;99.90
51982;DHT22;37998;53.416;6.730;2023-10-09T15:44:12;16.50;99.90
51982;DHT22;37998;53.416;6.730;2023-10-09T15:46:39;16.50;99.90
51982;DHT22;37998;53.416;6.730;2023-10-09T15:49:05;16.50;99.90
51982;DHT22;37998;53.416;6.730;2023-10-09T15:51:35;16.50;99.90
51982;DHT22;37998;53.416;6.730;2023-10-09T15:54:01;16.60;99.90
51982;DHT22;37998;53.416;6.730;2023-10-09T15:56:30;16.60;99.90
51982;DHT22;37998;53.416;6.730;2023-10-09T15:58:56;16.60;99.90
51982;DHT22;37998;53.416;6.730;2023-10-09T16:01:22;16.60;99.90
51982;DHT22;37998;53.416;6.730;2023-10-09T16:03:48;16.60;99.90
51982;DHT22;37998;53.416;6.730;2023-10-09T16:06:16;16.50;99.90
51982;DHT22;37998;53.416;6.730;2023-10-09T16:08:47;16.50;99.90
51982;DHT22;37998;53.416;6.730;2023-10-09T16:11:18;16.50;99.90
51982;DHT22;37998;53.416;6.730;2023-10-09T16:13:44;16.50;99.90
51982;DHT22;37998;53.416;6.730;2023-10-09T16:16:10;16.50;99.90
51982;DHT22;37998;53.416;6.730;2023-10-09T16:18:39;16.40;99.90
51982;DHT22;37998;53.416;6.730;2023-10-09T16:21:05;16.40;99.90
51982;DHT22;37998;53.416;6.730;2023-10-09T16:23:34;16.30;99.90
51982;DHT22;37998;53.416;6.730;2023-10-09T16:26:02;16.30;99.90